Latest Past Events

Fighter Jet / Helicopter / Simulator*

Aérodrome de Reims-Prunay Aérodrome de Reims-Prunay, Prunay

In order to share the passion for aviation with you as much as possible, we organise weekends full of aeronautical activities. Have a seat in a real fighter plane piloted by a former military pilot while your loved ones have fun on a helicopter ride or in a simulator. Share unique moments and live the …

Fighter Jet

Aérodrome de Reims-Prunay Aérodrome de Reims-Prunay, Prunay

In order to share the passion for aviation with you as much as possible, we organise weekends full of aeronautical activities. Have a seat in a real fighter plane piloted by a former military pilot. Share unique moments and live the real fighter pilot experience with our diligent and experienced team.

METAR:

LFQA 011200Z AUTO 27010KT 250V310 9999 BKN030 BKN036 09/03 Q1027


live view of the airfield
invoicing legal Notice privacy policy
Cochet Concept
cx